sensor_id;sensor_type;location;lat;lon;timestamp;P1;durP1;ratioP1;P2;durP2;ratioP2
11743;SDS011;5929;51.906;7.674;2022-10-26T00:01:01;16.10;;;9.43;;
11743;SDS011;5929;51.906;7.674;2022-10-26T00:03:29;11.50;;;8.98;;
11743;SDS011;5929;51.906;7.674;2022-10-26T00:06:00;15.50;;;9.82;;
11743;SDS011;5929;51.906;7.674;2022-10-26T00:08:29;14.95;;;9.52;;
11743;SDS011;5929;51.906;7.674;2022-10-26T00:10:56;14.32;;;9.07;;
11743;SDS011;5929;51.906;7.674;2022-10-26T00:13:23;17.13;;;9.35;;
11743;SDS011;5929;51.906;7.674;2022-10-26T00:15:51;14.65;;;9.02;;
11743;SDS011;5929;51.906;7.674;2022-10-26T00:18:18;16.73;;;8.50;;
11743;SDS011;5929;51.906;7.674;2022-10-26T00:20:45;13.38;;;8.48;;
11743;SDS011;5929;51.906;7.674;2022-10-26T00:23:12;14.35;;;9.13;;
11743;SDS011;5929;51.906;7.674;2022-10-26T00:25:39;15.13;;;9.32;;
11743;SDS011;5929;51.906;7.674;2022-10-26T00:28:06;13.70;;;9.57;;
11743;SDS011;5929;51.906;7.674;2022-10-26T00:30:33;15.82;;;9.27;;
11743;SDS011;5929;51.906;7.674;2022-10-26T00:33:01;14.68;;;9.23;;
11743;SDS011;5929;51.906;7.674;2022-10-26T00:35:28;17.35;;;9.77;;
11743;SDS011;5929;51.906;7.674;2022-10-26T00:37:55;15.40;;;9.73;;
11743;SDS011;5929;51.906;7.674;2022-10-26T00:40:25;14.60;;;10.15;;
11743;SDS011;5929;51.906;7.674;2022-10-26T00:42:53;16.55;;;9.63;;
11743;SDS011;5929;51.906;7.674;2022-10-26T00:45:20;12.73;;;8.88;;
11743;SDS011;5929;51.906;7.674;2022-10-26T00:47:49;17.23;;;9.38;;
11743;SDS011;5929;51.906;7.674;2022-10-26T00:50:21;14.18;;;9.00;;
11743;SDS011;5929;51.906;7.674;2022-10-26T00:52:52;16.50;;;10.10;;
11743;SDS011;5929;51.906;7.674;2022-10-26T00:55:23;13.25;;;9.55;;
11743;SDS011;5929;51.906;7.674;2022-10-26T00:57:54;12.20;;;8.65;;
11743;SDS011;5929;51.906;7.674;2022-10-26T01:00:21;14.10;;;8.85;;
11743;SDS011;5929;51.906;7.674;2022-10-26T01:02:51;14.25;;;9.48;;
11743;SDS011;5929;51.906;7.674;2022-10-26T01:05:21;14.27;;;9.25;;
11743;SDS011;5929;51.906;7.674;2022-10-26T01:07:49;15.73;;;9.05;;
11743;SDS011;5929;51.906;7.674;2022-10-26T01:10:17;19.55;;;9.50;;
11743;SDS011;5929;51.906;7.674;2022-10-26T01:12:43;14.30;;;8.73;;
11743;SDS011;5929;51.906;7.674;2022-10-26T01:15:11;17.42;;;8.88;;
11743;SDS011;5929;51.906;7.674;2022-10-26T01:17:42;13.85;;;9.60;;
11743;SDS011;5929;51.906;7.674;2022-10-26T01:20:28;14.25;;;8.48;;
11743;SDS011;5929;51.906;7.674;2022-10-26T01:23:06;14.32;;;8.88;;
11743;SDS011;5929;51.906;7.674;2022-10-26T01:25:46;14.38;;;8.75;;
11743;SDS011;5929;51.906;7.674;2022-10-26T01:28:57;12.10;;;8.07;;
11743;SDS011;5929;51.906;7.674;2022-10-26T01:31:41;14.65;;;8.80;;
11743;SDS011;5929;51.906;7.674;2022-10-26T01:34:14;12.07;;;7.38;;
11743;SDS011;5929;51.906;7.674;2022-10-26T01:36:48;13.25;;;8.00;;
11743;SDS011;5929;51.906;7.674;2022-10-26T01:39:20;13.35;;;8.45;;
11743;SDS011;5929;51.906;7.674;2022-10-26T01:41:54;15.95;;;8.55;;
11743;SDS011;5929;51.906;7.674;2022-10-26T01:44:23;15.70;;;8.48;;
11743;SDS011;5929;51.906;7.674;2022-10-26T01:46:56;13.93;;;8.57;;
11743;SDS011;5929;51.906;7.674;2022-10-26T01:49:25;13.85;;;8.43;;
11743;SDS011;5929;51.906;7.674;2022-10-26T01:51:54;16.48;;;8.70;;
11743;SDS011;5929;51.906;7.674;2022-10-26T01:54:20;15.30;;;7.85;;
11743;SDS011;5929;51.906;7.674;2022-10-26T01:56:48;14.38;;;7.90;;
11743;SDS011;5929;51.906;7.674;2022-10-26T01:59:29;16.23;;;8.43;;
11743;SDS011;5929;51.906;7.674;2022-10-26T02:05:16;12.90;;;8.60;;
11743;SDS011;5929;51.906;7.674;2022-10-26T02:08:00;16.10;;;8.23;;
11743;SDS011;5929;51.906;7.674;2022-10-26T02:10:39;15.50;;;8.93;;
11743;SDS011;5929;51.906;7.674;2022-10-26T02:13:14;14.98;;;8.50;;
11743;SDS011;5929;51.906;7.674;2022-10-26T02:15:47;14.18;;;8.98;;
11743;SDS011;5929;51.906;7.674;2022-10-26T02:18:23;16.42;;;8.55;;
11743;SDS011;5929;51.906;7.674;2022-10-26T02:20:57;14.20;;;8.63;;
11743;SDS011;5929;51.906;7.674;2022-10-26T02:23:28;15.35;;;8.43;;
11743;SDS011;5929;51.906;7.674;2022-10-26T02:25:58;16.67;;;8.40;;
11743;SDS011;5929;51.906;7.674;2022-10-26T02:28:26;12.38;;;8.43;;
11743;SDS011;5929;51.906;7.674;2022-10-26T02:31:02;12.90;;;7.80;;
11743;SDS011;5929;51.906;7.674;2022-10-26T02:33:32;11.75;;;7.55;;
11743;SDS011;5929;51.906;7.674;2022-10-26T02:36:06;11.90;;;7.82;;
11743;SDS011;5929;51.906;7.674;2022-10-26T02:38:37;12.95;;;8.32;;
11743;SDS011;5929;51.906;7.674;2022-10-26T02:41:09;17.60;;;8.27;;
11743;SDS011;5929;51.906;7.674;2022-10-26T02:43:40;14.82;;;8.15;;
11743;SDS011;5929;51.906;7.674;2022-10-26T02:46:10;13.95;;;7.78;;
11743;SDS011;5929;51.906;7.674;2022-10-26T02:48:41;14.88;;;7.30;;
11743;SDS011;5929;51.906;7.674;2022-10-26T02:51:08;13.68;;;7.82;;
11743;SDS011;5929;51.906;7.674;2022-10-26T02:53:41;12.90;;;6.95;;
11743;SDS011;5929;51.906;7.674;2022-10-26T02:56:17;11.38;;;7.85;;
11743;SDS011;5929;51.906;7.674;2022-10-26T02:58:48;16.83;;;7.63;;
11743;SDS011;5929;51.906;7.674;2022-10-26T03:01:18;14.05;;;7.28;;
11743;SDS011;5929;51.906;7.674;2022-10-26T03:03:46;15.10;;;7.25;;
11743;SDS011;5929;51.906;7.674;2022-10-26T03:06:19;13.95;;;7.93;;
11743;SDS011;5929;51.906;7.674;2022-10-26T03:08:47;13.82;;;7.00;;
11743;SDS011;5929;51.906;7.674;2022-10-26T03:11:14;12.20;;;6.65;;
11743;SDS011;5929;51.906;7.674;2022-10-26T03:13:41;15.95;;;6.93;;
11743;SDS011;5929;51.906;7.674;2022-10-26T03:16:08;14.45;;;7.63;;
11743;SDS011;5929;51.906;7.674;2022-10-26T03:18:36;13.68;;;7.68;;
11743;SDS011;5929;51.906;7.674;2022-10-26T03:21:06;17.83;;;7.75;;
11743;SDS011;5929;51.906;7.674;2022-10-26T03:23:33;12.80;;;7.03;;
11743;SDS011;5929;51.906;7.674;2022-10-26T03:26:00;13.40;;;7.50;;
11743;SDS011;5929;51.906;7.674;2022-10-26T03:28:27;9.90;;;7.10;;
11743;SDS011;5929;51.906;7.674;2022-10-26T03:30:53;14.15;;;7.95;;
11743;SDS011;5929;51.906;7.674;2022-10-26T03:33:20;13.02;;;7.60;;
11743;SDS011;5929;51.906;7.674;2022-10-26T03:35:52;10.68;;;6.72;;
11743;SDS011;5929;51.906;7.674;2022-10-26T03:38:21;12.50;;;6.57;;
11743;SDS011;5929;51.906;7.674;2022-10-26T03:40:48;16.10;;;6.70;;
11743;SDS011;5929;51.906;7.674;2022-10-26T03:43:15;12.85;;;7.28;;
11743;SDS011;5929;51.906;7.674;2022-10-26T03:45:41;9.45;;;6.30;;
11743;SDS011;5929;51.906;7.674;2022-10-26T03:48:08;12.65;;;6.93;;
11743;SDS011;5929;51.906;7.674;2022-10-26T03:50:35;11.23;;;7.07;;
11743;SDS011;5929;51.906;7.674;2022-10-26T03:53:02;14.52;;;6.95;;
11743;SDS011;5929;51.906;7.674;2022-10-26T03:55:31;13.90;;;7.60;;
11743;SDS011;5929;51.906;7.674;2022-10-26T03:57:58;13.63;;;6.95;;
11743;SDS011;5929;51.906;7.674;2022-10-26T04:00:24;10.20;;;6.45;;
11743;SDS011;5929;51.906;7.674;2022-10-26T04:02:54;12.68;;;6.72;;
11743;SDS011;5929;51.906;7.674;2022-10-26T04:05:23;11.48;;;7.05;;
11743;SDS011;5929;51.906;7.674;2022-10-26T04:07:51;12.57;;;6.63;;
11743;SDS011;5929;51.906;7.674;2022-10-26T04:10:19;13.60;;;6.65;;
11743;SDS011;5929;51.906;7.674;2022-10-26T04:12:47;12.35;;;6.45;;
11743;SDS011;5929;51.906;7.674;2022-10-26T04:15:14;11.98;;;6.00;;
11743;SDS011;5929;51.906;7.674;2022-10-26T04:17:41;12.25;;;6.70;;
11743;SDS011;5929;51.906;7.674;2022-10-26T04:20:09;10.38;;;6.40;;
11743;SDS011;5929;51.906;7.674;2022-10-26T04:22:36;14.80;;;6.47;;
11743;SDS011;5929;51.906;7.674;2022-10-26T04:25:03;15.98;;;6.00;;
11743;SDS011;5929;51.906;7.674;2022-10-26T04:27:31;10.75;;;6.03;;
11743;SDS011;5929;51.906;7.674;2022-10-26T04:30:00;14.45;;;6.55;;
11743;SDS011;5929;51.906;7.674;2022-10-26T04:32:27;9.30;;;5.65;;
11743;SDS011;5929;51.906;7.674;2022-10-26T04:34:54;13.85;;;5.95;;
11743;SDS011;5929;51.906;7.674;2022-10-26T04:37:21;11.15;;;5.80;;
11743;SDS011;5929;51.906;7.674;2022-10-26T04:39:48;9.05;;;5.65;;
11743;SDS011;5929;51.906;7.674;2022-10-26T04:42:14;13.10;;;6.18;;
11743;SDS011;5929;51.906;7.674;2022-10-26T04:44:41;12.55;;;5.90;;
11743;SDS011;5929;51.906;7.674;2022-10-26T04:47:09;9.18;;;6.35;;
11743;SDS011;5929;51.906;7.674;2022-10-26T04:49:36;13.32;;;6.30;;
11743;SDS011;5929;51.906;7.674;2022-10-26T04:52:04;10.05;;;6.15;;
11743;SDS011;5929;51.906;7.674;2022-10-26T04:54:30;11.55;;;5.75;;
11743;SDS011;5929;51.906;7.674;2022-10-26T04:56:57;10.43;;;5.75;;
11743;SDS011;5929;51.906;7.674;2022-10-26T04:59:24;15.20;;;5.47;;
11743;SDS011;5929;51.906;7.674;2022-10-26T05:01:51;12.73;;;5.95;;
11743;SDS011;5929;51.906;7.674;2022-10-26T05:04:19;12.13;;;5.75;;
11743;SDS011;5929;51.906;7.674;2022-10-26T05:06:46;14.20;;;5.78;;
11743;SDS011;5929;51.906;7.674;2022-10-26T05:09:12;11.68;;;5.93;;
11743;SDS011;5929;51.906;7.674;2022-10-26T05:11:39;12.27;;;5.70;;
11743;SDS011;5929;51.906;7.674;2022-10-26T05:14:06;13.18;;;5.93;;
11743;SDS011;5929;51.906;7.674;2022-10-26T05:16:33;10.15;;;6.22;;
11743;SDS011;5929;51.906;7.674;2022-10-26T05:19:00;10.50;;;5.95;;
11743;SDS011;5929;51.906;7.674;2022-10-26T05:21:29;12.05;;;6.57;;
11743;SDS011;5929;51.906;7.674;2022-10-26T05:23:55;9.75;;;6.55;;
11743;SDS011;5929;51.906;7.674;2022-10-26T05:26:22;14.27;;;7.22;;
11743;SDS011;5929;51.906;7.674;2022-10-26T05:28:50;8.50;;;6.30;;
11743;SDS011;5929;51.906;7.674;2022-10-26T05:31:17;12.43;;;6.40;;
11743;SDS011;5929;51.906;7.674;2022-10-26T05:33:47;13.05;;;6.50;;
11743;SDS011;5929;51.906;7.674;2022-10-26T05:36:15;14.77;;;6.88;;
11743;SDS011;5929;51.906;7.674;2022-10-26T05:38:43;13.18;;;6.97;;
11743;SDS011;5929;51.906;7.674;2022-10-26T05:41:10;8.73;;;6.15;;
11743;SDS011;5929;51.906;7.674;2022-10-26T05:43:37;17.15;;;6.45;;
11743;SDS011;5929;51.906;7.674;2022-10-26T05:46:04;11.18;;;6.40;;
11743;SDS011;5929;51.906;7.674;2022-10-26T05:48:31;9.65;;;5.78;;
11743;SDS011;5929;51.906;7.674;2022-10-26T05:50:57;13.93;;;6.82;;
11743;SDS011;5929;51.906;7.674;2022-10-26T05:53:25;11.52;;;5.97;;
11743;SDS011;5929;51.906;7.674;2022-10-26T05:55:54;13.05;;;6.47;;
11743;SDS011;5929;51.906;7.674;2022-10-26T05:58:21;11.35;;;6.05;;
11743;SDS011;5929;51.906;7.674;2022-10-26T06:00:53;8.38;;;5.45;;
11743;SDS011;5929;51.906;7.674;2022-10-26T06:03:33;18.33;;;6.88;;
11743;SDS011;5929;51.906;7.674;2022-10-26T06:06:07;12.30;;;6.53;;
11743;SDS011;5929;51.906;7.674;2022-10-26T06:08:36;8.68;;;6.13;;
11743;SDS011;5929;51.906;7.674;2022-10-26T06:11:05;10.88;;;6.15;;
11743;SDS011;5929;51.906;7.674;2022-10-26T06:13:33;11.50;;;6.20;;
11743;SDS011;5929;51.906;7.674;2022-10-26T06:16:02;13.57;;;6.68;;
11743;SDS011;5929;51.906;7.674;2022-10-26T06:18:40;11.50;;;6.68;;
11743;SDS011;5929;51.906;7.674;2022-10-26T06:21:22;11.13;;;6.30;;
11743;SDS011;5929;51.906;7.674;2022-10-26T06:24:01;15.68;;;6.63;;
11743;SDS011;5929;51.906;7.674;2022-10-26T06:26:35;15.73;;;6.70;;
11743;SDS011;5929;51.906;7.674;2022-10-26T06:29:13;11.80;;;6.78;;
11743;SDS011;5929;51.906;7.674;2022-10-26T06:31:47;18.45;;;6.90;;
11743;SDS011;5929;51.906;7.674;2022-10-26T06:34:16;14.90;;;6.53;;
11743;SDS011;5929;51.906;7.674;2022-10-26T06:36:48;12.80;;;7.10;;
11743;SDS011;5929;51.906;7.674;2022-10-26T06:39:15;13.90;;;6.40;;
11743;SDS011;5929;51.906;7.674;2022-10-26T06:41:45;14.25;;;6.47;;
11743;SDS011;5929;51.906;7.674;2022-10-26T06:44:14;12.68;;;6.30;;
11743;SDS011;5929;51.906;7.674;2022-10-26T06:46:47;14.68;;;6.57;;
11743;SDS011;5929;51.906;7.674;2022-10-26T06:49:18;9.57;;;6.40;;
11743;SDS011;5929;51.906;7.674;2022-10-26T06:51:55;10.55;;;6.07;;
11743;SDS011;5929;51.906;7.674;2022-10-26T06:54:24;14.88;;;7.28;;
11743;SDS011;5929;51.906;7.674;2022-10-26T06:56:58;11.60;;;6.32;;
11743;SDS011;5929;51.906;7.674;2022-10-26T06:59:29;11.23;;;5.93;;
11743;SDS011;5929;51.906;7.674;2022-10-26T07:02:00;15.65;;;6.80;;
11743;SDS011;5929;51.906;7.674;2022-10-26T07:04:27;12.23;;;6.57;;
11743;SDS011;5929;51.906;7.674;2022-10-26T07:06:56;10.43;;;6.30;;
11743;SDS011;5929;51.906;7.674;2022-10-26T07:09:23;17.00;;;6.25;;
11743;SDS011;5929;51.906;7.674;2022-10-26T07:11:50;10.35;;;5.93;;
11743;SDS011;5929;51.906;7.674;2022-10-26T07:14:18;12.35;;;5.28;;
11743;SDS011;5929;51.906;7.674;2022-10-26T07:16:45;12.63;;;5.47;;
11743;SDS011;5929;51.906;7.674;2022-10-26T07:19:11;9.63;;;5.78;;
11743;SDS011;5929;51.906;7.674;2022-10-26T07:21:38;10.60;;;5.93;;
11743;SDS011;5929;51.906;7.674;2022-10-26T07:24:05;11.27;;;5.57;;
11743;SDS011;5929;51.906;7.674;2022-10-26T07:26:32;12.07;;;5.43;;
11743;SDS011;5929;51.906;7.674;2022-10-26T07:28:59;12.73;;;5.38;;
11743;SDS011;5929;51.906;7.674;2022-10-26T07:31:30;8.57;;;5.05;;
11743;SDS011;5929;51.906;7.674;2022-10-26T07:33:57;18.02;;;5.68;;
11743;SDS011;5929;51.906;7.674;2022-10-26T07:36:24;13.55;;;5.68;;
11743;SDS011;5929;51.906;7.674;2022-10-26T07:38:51;10.05;;;4.97;;
11743;SDS011;5929;51.906;7.674;2022-10-26T07:41:18;12.30;;;5.13;;
11743;SDS011;5929;51.906;7.674;2022-10-26T07:43:45;10.77;;;5.47;;
11743;SDS011;5929;51.906;7.674;2022-10-26T07:46:13;10.15;;;5.38;;
11743;SDS011;5929;51.906;7.674;2022-10-26T07:48:41;12.05;;;5.18;;
11743;SDS011;5929;51.906;7.674;2022-10-26T07:51:08;10.15;;;5.05;;
11743;SDS011;5929;51.906;7.674;2022-10-26T07:53:37;11.70;;;5.22;;
11743;SDS011;5929;51.906;7.674;2022-10-26T07:56:04;13.57;;;5.63;;
11743;SDS011;5929;51.906;7.674;2022-10-26T07:58:32;9.90;;;5.18;;
11743;SDS011;5929;51.906;7.674;2022-10-26T08:01:03;13.65;;;5.40;;
11743;SDS011;5929;51.906;7.674;2022-10-26T08:03:31;8.65;;;5.40;;
11743;SDS011;5929;51.906;7.674;2022-10-26T08:05:59;13.13;;;5.47;;
11743;SDS011;5929;51.906;7.674;2022-10-26T08:08:26;14.85;;;5.32;;
11743;SDS011;5929;51.906;7.674;2022-10-26T08:10:56;12.30;;;5.18;;
11743;SDS011;5929;51.906;7.674;2022-10-26T08:13:23;16.80;;;5.43;;
11743;SDS011;5929;51.906;7.674;2022-10-26T08:15:54;15.77;;;5.03;;
11743;SDS011;5929;51.906;7.674;2022-10-26T08:18:22;7.43;;;4.60;;
11743;SDS011;5929;51.906;7.674;2022-10-26T08:20:49;13.05;;;5.07;;
11743;SDS011;5929;51.906;7.674;2022-10-26T08:23:17;6.78;;;4.50;;
11743;SDS011;5929;51.906;7.674;2022-10-26T08:25:44;10.20;;;4.93;;
11743;SDS011;5929;51.906;7.674;2022-10-26T08:28:10;8.98;;;4.50;;
11743;SDS011;5929;51.906;7.674;2022-10-26T08:30:37;10.02;;;4.32;;
11743;SDS011;5929;51.906;7.674;2022-10-26T08:33:05;8.02;;;4.05;;
11743;SDS011;5929;51.906;7.674;2022-10-26T08:35:33;6.22;;;3.92;;
11743;SDS011;5929;51.906;7.674;2022-10-26T08:37:59;11.00;;;4.32;;
11743;SDS011;5929;51.906;7.674;2022-10-26T08:40:29;10.80;;;4.22;;
11743;SDS011;5929;51.906;7.674;2022-10-26T08:42:59;9.15;;;4.28;;
11743;SDS011;5929;51.906;7.674;2022-10-26T08:45:32;9.18;;;4.03;;
11743;SDS011;5929;51.906;7.674;2022-10-26T08:48:04;10.25;;;4.28;;
11743;SDS011;5929;51.906;7.674;2022-10-26T08:50:36;7.45;;;4.05;;
11743;SDS011;5929;51.906;7.674;2022-10-26T08:53:10;9.43;;;4.60;;
11743;SDS011;5929;51.906;7.674;2022-10-26T08:55:44;11.20;;;4.65;;
11743;SDS011;5929;51.906;7.674;2022-10-26T08:58:15;10.77;;;4.15;;
11743;SDS011;5929;51.906;7.674;2022-10-26T09:00:46;8.80;;;4.70;;
11743;SDS011;5929;51.906;7.674;2022-10-26T09:03:15;8.75;;;5.20;;
11743;SDS011;5929;51.906;7.674;2022-10-26T09:05:46;10.30;;;4.80;;
11743;SDS011;5929;51.906;7.674;2022-10-26T09:08:23;10.43;;;4.88;;
11743;SDS011;5929;51.906;7.674;2022-10-26T09:11:01;10.15;;;4.70;;
11743;SDS011;5929;51.906;7.674;2022-10-26T09:13:36;8.02;;;4.32;;
11743;SDS011;5929;51.906;7.674;2022-10-26T09:16:12;9.32;;;3.90;;
11743;SDS011;5929;51.906;7.674;2022-10-26T09:18:49;9.52;;;3.17;;
11743;SDS011;5929;51.906;7.674;2022-10-26T09:21:27;13.05;;;3.45;;
11743;SDS011;5929;51.906;7.674;2022-10-26T09:24:05;9.52;;;3.40;;
11743;SDS011;5929;51.906;7.674;2022-10-26T09:26:42;7.30;;;3.53;;
11743;SDS011;5929;51.906;7.674;2022-10-26T09:29:18;7.88;;;3.42;;
11743;SDS011;5929;51.906;7.674;2022-10-26T09:31:48;6.75;;;3.28;;
11743;SDS011;5929;51.906;7.674;2022-10-26T09:34:20;7.85;;;3.58;;
11743;SDS011;5929;51.906;7.674;2022-10-26T09:36:53;9.23;;;3.95;;
11743;SDS011;5929;51.906;7.674;2022-10-26T09:39:23;11.82;;;3.83;;
11743;SDS011;5929;51.906;7.674;2022-10-26T09:41:58;8.93;;;3.13;;
11743;SDS011;5929;51.906;7.674;2022-10-26T09:44:30;7.88;;;2.90;;
11743;SDS011;5929;51.906;7.674;2022-10-26T09:47:03;9.82;;;3.10;;
11743;SDS011;5929;51.906;7.674;2022-10-26T09:49:40;7.60;;;2.30;;
11743;SDS011;5929;51.906;7.674;2022-10-26T09:52:12;7.13;;;2.83;;
11743;SDS011;5929;51.906;7.674;2022-10-26T09:54:39;6.00;;;2.28;;
11743;SDS011;5929;51.906;7.674;2022-10-26T09:57:08;6.22;;;1.90;;
11743;SDS011;5929;51.906;7.674;2022-10-26T09:59:38;5.85;;;2.15;;
11743;SDS011;5929;51.906;7.674;2022-10-26T10:04:57;6.35;;;1.92;;
11743;SDS011;5929;51.906;7.674;2022-10-26T10:07:24;7.03;;;1.80;;
11743;SDS011;5929;51.906;7.674;2022-10-26T10:10:05;6.68;;;1.58;;
11743;SDS011;5929;51.906;7.674;2022-10-26T10:12:35;9.52;;;1.63;;
11743;SDS011;5929;51.906;7.674;2022-10-26T10:15:01;6.47;;;1.45;;
11743;SDS011;5929;51.906;7.674;2022-10-26T10:17:29;4.35;;;1.50;;
11743;SDS011;5929;51.906;7.674;2022-10-26T10:20:04;5.07;;;1.65;;
11743;SDS011;5929;51.906;7.674;2022-10-26T10:22:36;5.95;;;1.55;;
11743;SDS011;5929;51.906;7.674;2022-10-26T10:25:21;4.57;;;1.55;;
11743;SDS011;5929;51.906;7.674;2022-10-26T10:27:58;9.85;;;2.05;;
11743;SDS011;5929;51.906;7.674;2022-10-26T10:30:27;5.78;;;1.83;;
11743;SDS011;5929;51.906;7.674;2022-10-26T10:33:05;9.38;;;1.60;;
11743;SDS011;5929;51.906;7.674;2022-10-26T10:35:35;7.20;;;1.60;;
11743;SDS011;5929;51.906;7.674;2022-10-26T10:38:03;4.75;;;1.88;;
11743;SDS011;5929;51.906;7.674;2022-10-26T10:40:30;7.93;;;1.70;;
11743;SDS011;5929;51.906;7.674;2022-10-26T10:43:03;5.43;;;1.70;;
11743;SDS011;5929;51.906;7.674;2022-10-26T10:45:36;5.88;;;1.60;;
11743;SDS011;5929;51.906;7.674;2022-10-26T10:48:04;6.53;;;1.48;;
11743;SDS011;5929;51.906;7.674;2022-10-26T10:50:49;5.57;;;1.42;;
11743;SDS011;5929;51.906;7.674;2022-10-26T10:53:19;3.95;;;1.30;;
11743;SDS011;5929;51.906;7.674;2022-10-26T10:55:54;5.57;;;1.40;;
11743;SDS011;5929;51.906;7.674;2022-10-26T10:58:42;6.05;;;1.65;;
11743;SDS011;5929;51.906;7.674;2022-10-26T11:01:17;8.88;;;1.90;;
11743;SDS011;5929;51.906;7.674;2022-10-26T11:03:55;9.00;;;1.95;;
11743;SDS011;5929;51.906;7.674;2022-10-26T11:06:47;7.28;;;1.60;;
11743;SDS011;5929;51.906;7.674;2022-10-26T11:09:15;5.82;;;1.50;;
11743;SDS011;5929;51.906;7.674;2022-10-26T11:11:44;8.93;;;1.70;;
11743;SDS011;5929;51.906;7.674;2022-10-26T11:14:16;6.28;;;1.70;;
11743;SDS011;5929;51.906;7.674;2022-10-26T11:16:47;5.75;;;2.03;;
11743;SDS011;5929;51.906;7.674;2022-10-26T11:19:18;6.15;;;1.60;;
11743;SDS011;5929;51.906;7.674;2022-10-26T11:21:49;6.68;;;1.75;;
11743;SDS011;5929;51.906;7.674;2022-10-26T11:24:21;5.78;;;1.40;;
11743;SDS011;5929;51.906;7.674;2022-10-26T11:26:52;6.70;;;1.73;;
11743;SDS011;5929;51.906;7.674;2022-10-26T11:29:30;6.30;;;1.63;;
11743;SDS011;5929;51.906;7.674;2022-10-26T11:32:02;9.35;;;1.88;;
11743;SDS011;5929;51.906;7.674;2022-10-26T11:34:42;4.65;;;1.30;;
11743;SDS011;5929;51.906;7.674;2022-10-26T11:37:14;4.97;;;1.42;;
11743;SDS011;5929;51.906;7.674;2022-10-26T11:39:51;5.05;;;1.40;;
11743;SDS011;5929;51.906;7.674;2022-10-26T11:42:28;6.55;;;1.63;;
11743;SDS011;5929;51.906;7.674;2022-10-26T11:45:08;9.45;;;1.55;;
11743;SDS011;5929;51.906;7.674;2022-10-26T11:47:43;5.25;;;1.40;;
11743;SDS011;5929;51.906;7.674;2022-10-26T11:50:16;7.47;;;1.48;;
11743;SDS011;5929;51.906;7.674;2022-10-26T11:52:47;5.22;;;1.55;;
11743;SDS011;5929;51.906;7.674;2022-10-26T11:55:17;5.93;;;1.77;;
11743;SDS011;5929;51.906;7.674;2022-10-26T11:57:45;5.18;;;1.42;;
11743;SDS011;5929;51.906;7.674;2022-10-26T12:00:15;6.40;;;1.58;;
11743;SDS011;5929;51.906;7.674;2022-10-26T12:02:45;6.47;;;1.60;;
11743;SDS011;5929;51.906;7.674;2022-10-26T12:05:19;6.30;;;1.67;;
11743;SDS011;5929;51.906;7.674;2022-10-26T12:07:48;6.88;;;1.42;;
11743;SDS011;5929;51.906;7.674;2022-10-26T12:10:20;6.10;;;1.73;;
11743;SDS011;5929;51.906;7.674;2022-10-26T12:12:51;8.50;;;1.90;;
11743;SDS011;5929;51.906;7.674;2022-10-26T12:15:27;7.95;;;1.83;;
11743;SDS011;5929;51.906;7.674;2022-10-26T12:18:02;5.43;;;1.70;;
11743;SDS011;5929;51.906;7.674;2022-10-26T12:20:47;5.35;;;1.65;;
11743;SDS011;5929;51.906;7.674;2022-10-26T12:23:19;5.53;;;1.65;;
11743;SDS011;5929;51.906;7.674;2022-10-26T12:25:47;4.70;;;1.63;;
11743;SDS011;5929;51.906;7.674;2022-10-26T12:28:37;7.93;;;1.77;;
11743;SDS011;5929;51.906;7.674;2022-10-26T12:34:11;8.45;;;2.00;;
11743;SDS011;5929;51.906;7.674;2022-10-26T12:36:48;9.00;;;1.92;;
11743;SDS011;5929;51.906;7.674;2022-10-26T12:39:35;8.38;;;2.03;;
11743;SDS011;5929;51.906;7.674;2022-10-26T12:42:09;7.22;;;2.10;;
11743;SDS011;5929;51.906;7.674;2022-10-26T12:45:05;9.55;;;1.88;;
11743;SDS011;5929;51.906;7.674;2022-10-26T12:48:02;7.50;;;1.60;;
11743;SDS011;5929;51.906;7.674;2022-10-26T12:50:30;6.65;;;2.28;;
11743;SDS011;5929;51.906;7.674;2022-10-26T12:52:57;9.18;;;2.20;;
11743;SDS011;5929;51.906;7.674;2022-10-26T12:55:39;6.63;;;2.08;;
11743;SDS011;5929;51.906;7.674;2022-10-26T13:05:05;8.45;;;2.17;;
11743;SDS011;5929;51.906;7.674;2022-10-26T13:07:50;7.30;;;2.10;;
11743;SDS011;5929;51.906;7.674;2022-10-26T13:10:18;5.90;;;2.20;;
11743;SDS011;5929;51.906;7.674;2022-10-26T13:12:48;7.55;;;2.05;;
11743;SDS011;5929;51.906;7.674;2022-10-26T13:15:19;7.80;;;2.40;;
11743;SDS011;5929;51.906;7.674;2022-10-26T13:17:58;10.05;;;2.42;;
11743;SDS011;5929;51.906;7.674;2022-10-26T13:20:34;8.18;;;2.45;;
11743;SDS011;5929;51.906;7.674;2022-10-26T13:23:13;8.52;;;2.30;;
11743;SDS011;5929;51.906;7.674;2022-10-26T13:25:59;8.07;;;2.22;;
11743;SDS011;5929;51.906;7.674;2022-10-26T13:28:29;7.50;;;2.45;;
11743;SDS011;5929;51.906;7.674;2022-10-26T13:30:58;10.48;;;2.28;;
11743;SDS011;5929;51.906;7.674;2022-10-26T13:33:27;13.23;;;3.13;;
11743;SDS011;5929;51.906;7.674;2022-10-26T13:36:01;7.22;;;2.53;;
11743;SDS011;5929;51.906;7.674;2022-10-26T13:38:39;7.03;;;2.17;;
11743;SDS011;5929;51.906;7.674;2022-10-26T13:41:11;10.52;;;2.60;;
11743;SDS011;5929;51.906;7.674;2022-10-26T13:43:46;7.97;;;2.25;;
11743;SDS011;5929;51.906;7.674;2022-10-26T13:46:24;9.30;;;2.58;;
11743;SDS011;5929;51.906;7.674;2022-10-26T13:48:53;12.20;;;2.25;;
11743;SDS011;5929;51.906;7.674;2022-10-26T13:51:29;10.07;;;2.40;;
11743;SDS011;5929;51.906;7.674;2022-10-26T13:54:12;8.45;;;2.38;;
11743;SDS011;5929;51.906;7.674;2022-10-26T13:56:48;7.75;;;2.58;;
11743;SDS011;5929;51.906;7.674;2022-10-26T13:59:24;6.80;;;2.00;;
11743;SDS011;5929;51.906;7.674;2022-10-26T14:04:46;9.82;;;1.80;;
11743;SDS011;5929;51.906;7.674;2022-10-26T14:07:16;6.05;;;2.05;;
11743;SDS011;5929;51.906;7.674;2022-10-26T14:09:50;9.13;;;2.53;;
11743;SDS011;5929;51.906;7.674;2022-10-26T14:12:18;6.78;;;2.20;;
11743;SDS011;5929;51.906;7.674;2022-10-26T14:14:46;8.15;;;1.95;;
11743;SDS011;5929;51.906;7.674;2022-10-26T14:17:16;8.07;;;2.13;;
11743;SDS011;5929;51.906;7.674;2022-10-26T14:19:45;12.18;;;2.92;;
11743;SDS011;5929;51.906;7.674;2022-10-26T14:22:19;8.13;;;2.22;;
11743;SDS011;5929;51.906;7.674;2022-10-26T14:24:51;7.72;;;2.13;;
11743;SDS011;5929;51.906;7.674;2022-10-26T14:27:19;9.05;;;2.25;;
11743;SDS011;5929;51.906;7.674;2022-10-26T14:29:48;7.82;;;2.28;;
11743;SDS011;5929;51.906;7.674;2022-10-26T14:32:20;8.82;;;2.30;;
11743;SDS011;5929;51.906;7.674;2022-10-26T14:34:48;8.65;;;2.30;;
11743;SDS011;5929;51.906;7.674;2022-10-26T14:37:17;8.45;;;2.35;;
11743;SDS011;5929;51.906;7.674;2022-10-26T14:40:00;8.85;;;2.22;;
11743;SDS011;5929;51.906;7.674;2022-10-26T14:42:29;7.57;;;2.30;;
11743;SDS011;5929;51.906;7.674;2022-10-26T14:44:58;8.05;;;2.00;;
11743;SDS011;5929;51.906;7.674;2022-10-26T14:47:26;6.50;;;2.20;;
11743;SDS011;5929;51.906;7.674;2022-10-26T14:49:54;5.90;;;2.00;;
11743;SDS011;5929;51.906;7.674;2022-10-26T14:52:22;7.40;;;2.85;;
11743;SDS011;5929;51.906;7.674;2022-10-26T14:55:00;6.80;;;2.42;;
11743;SDS011;5929;51.906;7.674;2022-10-26T14:57:32;5.65;;;2.17;;
11743;SDS011;5929;51.906;7.674;2022-10-26T15:00:02;7.25;;;2.13;;
11743;SDS011;5929;51.906;7.674;2022-10-26T15:02:38;5.00;;;1.80;;
11743;SDS011;5929;51.906;7.674;2022-10-26T15:05:15;7.90;;;2.10;;
11743;SDS011;5929;51.906;7.674;2022-10-26T15:07:44;6.82;;;2.13;;
11743;SDS011;5929;51.906;7.674;2022-10-26T15:13:19;5.97;;;2.05;;
11743;SDS011;5929;51.906;7.674;2022-10-26T15:15:50;6.40;;;2.05;;
11743;SDS011;5929;51.906;7.674;2022-10-26T15:18:19;6.95;;;2.20;;
11743;SDS011;5929;51.906;7.674;2022-10-26T15:20:49;6.10;;;2.20;;
11743;SDS011;5929;51.906;7.674;2022-10-26T15:23:17;6.30;;;2.25;;
11743;SDS011;5929;51.906;7.674;2022-10-26T15:25:52;9.07;;;2.10;;
11743;SDS011;5929;51.906;7.674;2022-10-26T15:28:21;5.47;;;1.95;;
11743;SDS011;5929;51.906;7.674;2022-10-26T15:30:59;6.28;;;2.08;;
11743;SDS011;5929;51.906;7.674;2022-10-26T15:33:28;6.05;;;1.90;;
11743;SDS011;5929;51.906;7.674;2022-10-26T15:36:09;7.20;;;2.30;;
11743;SDS011;5929;51.906;7.674;2022-10-26T15:38:38;8.05;;;2.30;;